sensor_id;sensor_type;location;lat;lon;timestamp;pressure;altitude;pressure_sealevel;temperature;humidity
73974;BME280;62336;-26.094;27.994;2022-09-09T00:00:18;85200.10;;;25.20;16.61
73974;BME280;62336;-26.094;27.994;2022-09-09T00:02:46;85195.10;;;25.42;16.86
73974;BME280;62336;-26.094;27.994;2022-09-09T00:05:19;85188.58;;;25.92;16.59
73974;BME280;62336;-26.094;27.994;2022-09-09T00:07:41;85192.49;;;25.34;16.81
73974;BME280;62336;-26.094;27.994;2022-09-09T00:10:03;85191.09;;;25.68;16.74
73974;BME280;62336;-26.094;27.994;2022-09-09T00:12:32;85190.15;;;25.26;17.13
73974;BME280;62336;-26.094;27.994;2022-09-09T00:14:53;85190.16;;;25.14;17.15
73974;BME280;62336;-26.094;27.994;2022-09-09T00:17:22;85189.10;;;25.37;17.10
73974;BME280;62336;-26.094;27.994;2022-09-09T00:19:46;85187.23;;;25.11;17.09
73974;BME280;62336;-26.094;27.994;2022-09-09T00:22:15;85184.53;;;25.70;16.60
73974;BME280;62336;-26.094;27.994;2022-09-09T00:24:35;85182.14;;;25.66;16.61
73974;BME280;62336;-26.094;27.994;2022-09-09T00:27:04;85181.61;;;25.69;16.57
73974;BME280;62336;-26.094;27.994;2022-09-09T00:29:27;85179.60;;;25.78;16.46
73974;BME280;62336;-26.094;27.994;2022-09-09T00:31:48;85177.34;;;25.98;16.77
73974;BME280;62336;-26.094;27.994;2022-09-09T00:34:16;85176.32;;;26.07;16.74
73974;BME280;62336;-26.094;27.994;2022-09-09T00:36:40;85175.48;;;25.90;16.80
73974;BME280;62336;-26.094;27.994;2022-09-09T00:39:05;85175.02;;;25.80;16.95
73974;BME280;62336;-26.094;27.994;2022-09-09T00:41:38;85174.02;;;25.83;16.99
73974;BME280;62336;-26.094;27.994;2022-09-09T00:44:00;85176.03;;;25.77;17.01
73974;BME280;62336;-26.094;27.994;2022-09-09T00:48:54;85169.60;;;25.93;17.06
73974;BME280;62336;-26.094;27.994;2022-09-09T00:51:15;85165.36;;;26.23;17.16
73974;BME280;62336;-26.094;27.994;2022-09-09T00:53:53;85161.80;;;25.93;17.07
73974;BME280;62336;-26.094;27.994;2022-09-09T00:56:09;85161.53;;;25.74;16.92
73974;BME280;62336;-26.094;27.994;2022-09-09T00:58:27;85160.87;;;26.18;16.76
73974;BME280;62336;-26.094;27.994;2022-09-09T01:00:58;85161.38;;;26.47;16.79
73974;BME280;62336;-26.094;27.994;2022-09-09T01:03:22;85159.63;;;26.14;17.20
73974;BME280;62336;-26.094;27.994;2022-09-09T01:05:45;85159.71;;;25.76;17.25
73974;BME280;62336;-26.094;27.994;2022-09-09T01:08:15;85158.13;;;26.03;17.22
73974;BME280;62336;-26.094;27.994;2022-09-09T01:10:41;85158.64;;;25.42;17.16
73974;BME280;62336;-26.094;27.994;2022-09-09T01:13:02;85157.49;;;25.98;17.13
73974;BME280;62336;-26.094;27.994;2022-09-09T01:15:27;85153.53;;;25.94;17.23
73974;BME280;62336;-26.094;27.994;2022-09-09T01:17:55;85150.49;;;26.16;17.24
73974;BME280;62336;-26.094;27.994;2022-09-09T01:20:19;85147.94;;;25.99;17.24
73974;BME280;62336;-26.094;27.994;2022-09-09T01:22:48;85146.89;;;26.48;16.76
73974;BME280;62336;-26.094;27.994;2022-09-09T01:27:32;85148.57;;;26.34;17.11
73974;BME280;62336;-26.094;27.994;2022-09-09T01:29:56;85151.03;;;26.02;17.17
73974;BME280;62336;-26.094;27.994;2022-09-09T01:32:40;85149.27;;;25.68;17.18
73974;BME280;62336;-26.094;27.994;2022-09-09T01:34:46;85147.48;;;26.10;17.15
73974;BME280;62336;-26.094;27.994;2022-09-09T01:37:13;85146.19;;;26.05;17.25
73974;BME280;62336;-26.094;27.994;2022-09-09T01:39:39;85146.38;;;25.96;17.24
73974;BME280;62336;-26.094;27.994;2022-09-09T01:42:06;85148.55;;;26.25;17.18
73974;BME280;62336;-26.094;27.994;2022-09-09T01:44:30;85147.72;;;25.83;17.23
73974;BME280;62336;-26.094;27.994;2022-09-09T01:46:55;85146.18;;;25.68;17.33
73974;BME280;62336;-26.094;27.994;2022-09-09T01:49:20;85144.19;;;26.05;17.13
73974;BME280;62336;-26.094;27.994;2022-09-09T01:51:49;85148.56;;;25.78;17.39
73974;BME280;62336;-26.094;27.994;2022-09-09T01:54:11;85148.22;;;25.92;17.14
73974;BME280;62336;-26.094;27.994;2022-09-09T01:56:44;85149.65;;;25.75;17.45
73974;BME280;62336;-26.094;27.994;2022-09-09T01:59:12;85149.76;;;25.86;17.38
73974;BME280;62336;-26.094;27.994;2022-09-09T02:01:37;85153.31;;;25.75;17.41
73974;BME280;62336;-26.094;27.994;2022-09-09T02:03:57;85154.03;;;25.40;17.48
73974;BME280;62336;-26.094;27.994;2022-09-09T02:06:27;85151.65;;;25.56;17.44
73974;BME280;62336;-26.094;27.994;2022-09-09T02:08:47;85150.46;;;25.85;17.36
73974;BME280;62336;-26.094;27.994;2022-09-09T02:11:13;85152.37;;;25.64;17.33
73974;BME280;62336;-26.094;27.994;2022-09-09T02:13:37;85155.25;;;25.53;17.50
73974;BME280;62336;-26.094;27.994;2022-09-09T02:16:04;85156.64;;;25.34;17.58
73974;BME280;62336;-26.094;27.994;2022-09-09T02:18:30;85156.16;;;25.61;17.91
73974;BME280;62336;-26.094;27.994;2022-09-09T02:20:53;85157.47;;;25.34;17.79
73974;BME280;62336;-26.094;27.994;2022-09-09T02:23:18;85160.96;;;25.21;17.78
73974;BME280;62336;-26.094;27.994;2022-09-09T02:25:43;85161.59;;;25.18;18.18
73974;BME280;62336;-26.094;27.994;2022-09-09T02:28:10;85163.80;;;25.53;18.09
73974;BME280;62336;-26.094;27.994;2022-09-09T02:30:35;85163.91;;;25.53;18.12
73974;BME280;62336;-26.094;27.994;2022-09-09T02:33:02;85164.63;;;25.50;18.21
73974;BME280;62336;-26.094;27.994;2022-09-09T02:35:27;85166.59;;;25.53;17.89
73974;BME280;62336;-26.094;27.994;2022-09-09T02:37:53;85169.16;;;25.45;17.97
73974;BME280;62336;-26.094;27.994;2022-09-09T02:40:16;85173.25;;;25.40;17.97
73974;BME280;62336;-26.094;27.994;2022-09-09T02:42:42;85175.46;;;24.97;17.89
73974;BME280;62336;-26.094;27.994;2022-09-09T02:45:09;85179.38;;;25.06;17.87
73974;BME280;62336;-26.094;27.994;2022-09-09T02:47:35;85183.64;;;25.31;18.09
73974;BME280;62336;-26.094;27.994;2022-09-09T02:50:05;85189.34;;;25.36;18.22
73974;BME280;62336;-26.094;27.994;2022-09-09T02:52:30;85190.86;;;25.33;18.31
73974;BME280;62336;-26.094;27.994;2022-09-09T02:54:52;85192.25;;;24.98;18.04
73974;BME280;62336;-26.094;27.994;2022-09-09T02:57:19;85192.43;;;25.33;18.02
73974;BME280;62336;-26.094;27.994;2022-09-09T02:59:40;85195.47;;;25.35;17.87
73974;BME280;62336;-26.094;27.994;2022-09-09T03:02:06;85201.51;;;25.13;18.17
73974;BME280;62336;-26.094;27.994;2022-09-09T03:04:31;85199.86;;;25.08;18.16
73974;BME280;62336;-26.094;27.994;2022-09-09T03:06:57;85201.90;;;24.73;18.30
73974;BME280;62336;-26.094;27.994;2022-09-09T03:09:22;85201.85;;;25.00;18.19
73974;BME280;62336;-26.094;27.994;2022-09-09T03:11:47;85203.94;;;24.95;18.17
73974;BME280;62336;-26.094;27.994;2022-09-09T03:14:12;85202.90;;;24.83;18.42
73974;BME280;62336;-26.094;27.994;2022-09-09T03:16:37;85203.63;;;24.92;18.28
73974;BME280;62336;-26.094;27.994;2022-09-09T03:19:02;85203.56;;;25.29;18.18
73974;BME280;62336;-26.094;27.994;2022-09-09T03:21:28;85210.94;;;25.25;18.62
73974;BME280;62336;-26.094;27.994;2022-09-09T03:23:54;85212.01;;;24.83;18.64
73974;BME280;62336;-26.094;27.994;2022-09-09T03:26:20;85216.08;;;24.70;18.91
73974;BME280;62336;-26.094;27.994;2022-09-09T03:28:44;85218.77;;;24.38;19.14
73974;BME280;62336;-26.094;27.994;2022-09-09T03:31:10;85222.24;;;24.61;18.71
73974;BME280;62336;-26.094;27.994;2022-09-09T03:33:36;85224.15;;;24.57;18.78
73974;BME280;62336;-26.094;27.994;2022-09-09T03:36:01;85225.79;;;24.51;18.86
73974;BME280;62336;-26.094;27.994;2022-09-09T03:38:27;85229.26;;;24.70;18.98
73974;BME280;62336;-26.094;27.994;2022-09-09T03:40:53;85229.67;;;24.32;19.04
73974;BME280;62336;-26.094;27.994;2022-09-09T03:43:16;85235.51;;;24.92;19.09
73974;BME280;62336;-26.094;27.994;2022-09-09T03:45:45;85238.29;;;24.42;18.86
73974;BME280;62336;-26.094;27.994;2022-09-09T03:48:07;85240.79;;;24.82;18.87
73974;BME280;62336;-26.094;27.994;2022-09-09T03:50:32;85237.98;;;24.44;19.37
73974;BME280;62336;-26.094;27.994;2022-09-09T03:52:59;85242.71;;;24.66;19.26
73974;BME280;62336;-26.094;27.994;2022-09-09T03:55:24;85243.92;;;24.18;19.18
73974;BME280;62336;-26.094;27.994;2022-09-09T03:57:49;85249.42;;;24.08;19.22
73974;BME280;62336;-26.094;27.994;2022-09-09T04:00:15;85252.55;;;24.35;19.50
73974;BME280;62336;-26.094;27.994;2022-09-09T04:02:40;85255.82;;;23.98;19.41
73974;BME280;62336;-26.094;27.994;2022-09-09T04:05:06;85260.72;;;24.06;19.65
73974;BME280;62336;-26.094;27.994;2022-09-09T04:07:31;85260.65;;;24.28;19.23
73974;BME280;62336;-26.094;27.994;2022-09-09T04:09:56;85265.52;;;24.04;19.49
73974;BME280;62336;-26.094;27.994;2022-09-09T04:12:22;85267.47;;;24.13;19.43
73974;BME280;62336;-26.094;27.994;2022-09-09T04:14:47;85271.44;;;24.19;20.01
73974;BME280;62336;-26.094;27.994;2022-09-09T04:17:13;85275.04;;;24.16;19.50
73974;BME280;62336;-26.094;27.994;2022-09-09T04:19:38;85282.04;;;23.58;19.93
73974;BME280;62336;-26.094;27.994;2022-09-09T04:22:03;85282.61;;;24.20;19.71
73974;BME280;62336;-26.094;27.994;2022-09-09T04:24:30;85285.89;;;24.39;19.73
73974;BME280;62336;-26.094;27.994;2022-09-09T04:26:54;85286.11;;;24.41;19.53
73974;BME280;62336;-26.094;27.994;2022-09-09T04:29:19;85291.98;;;23.82;19.58
73974;BME280;62336;-26.094;27.994;2022-09-09T04:31:45;85292.60;;;24.20;19.77
73974;BME280;62336;-26.094;27.994;2022-09-09T04:34:10;85296.13;;;24.24;19.99
73974;BME280;62336;-26.094;27.994;2022-09-09T04:36:36;85295.42;;;23.74;19.92
73974;BME280;62336;-26.094;27.994;2022-09-09T04:39:01;85301.36;;;24.07;19.91
73974;BME280;62336;-26.094;27.994;2022-09-09T04:41:28;85304.06;;;23.72;19.74
73974;BME280;62336;-26.094;27.994;2022-09-09T04:43:53;85305.64;;;23.91;19.85
73974;BME280;62336;-26.094;27.994;2022-09-09T04:46:18;85309.72;;;24.01;19.98
73974;BME280;62336;-26.094;27.994;2022-09-09T04:48:43;85309.14;;;24.09;19.96
73974;BME280;62336;-26.094;27.994;2022-09-09T04:51:11;85307.58;;;24.47;19.57
73974;BME280;62336;-26.094;27.994;2022-09-09T04:53:34;85313.53;;;24.35;19.77
73974;BME280;62336;-26.094;27.994;2022-09-09T04:56:05;85316.45;;;24.14;19.86
73974;BME280;62336;-26.094;27.994;2022-09-09T04:58:25;85319.60;;;24.44;19.74
73974;BME280;62336;-26.094;27.994;2022-09-09T05:00:50;85324.83;;;24.00;20.02
73974;BME280;62336;-26.094;27.994;2022-09-09T05:03:15;85328.08;;;24.35;19.94
73974;BME280;62336;-26.094;27.994;2022-09-09T05:05:41;85327.61;;;24.62;20.10
73974;BME280;62336;-26.094;27.994;2022-09-09T05:08:08;85331.79;;;24.28;20.30
73974;BME280;62336;-26.094;27.994;2022-09-09T05:10:33;85329.49;;;24.68;19.95
73974;BME280;62336;-26.094;27.994;2022-09-09T05:12:58;85334.85;;;24.35;20.20
73974;BME280;62336;-26.094;27.994;2022-09-09T05:15:23;85332.50;;;24.47;19.98
73974;BME280;62336;-26.094;27.994;2022-09-09T05:17:48;85337.90;;;24.60;20.11
73974;BME280;62336;-26.094;27.994;2022-09-09T05:20:14;85342.30;;;24.51;20.75
73974;BME280;62336;-26.094;27.994;2022-09-09T05:22:39;85341.13;;;24.91;20.02
73974;BME280;62336;-26.094;27.994;2022-09-09T05:25:05;85348.32;;;24.98;19.94
73974;BME280;62336;-26.094;27.994;2022-09-09T05:27:30;85349.81;;;25.05;20.21
73974;BME280;62336;-26.094;27.994;2022-09-09T05:29:55;85350.51;;;24.89;20.34
73974;BME280;62336;-26.094;27.994;2022-09-09T05:32:21;85351.34;;;24.86;20.45
73974;BME280;62336;-26.094;27.994;2022-09-09T05:34:46;85356.02;;;24.99;24.16
73974;BME280;62336;-26.094;27.994;2022-09-09T05:37:11;85357.48;;;25.34;21.64
73974;BME280;62336;-26.094;27.994;2022-09-09T05:39:37;85362.99;;;25.58;20.41
73974;BME280;62336;-26.094;27.994;2022-09-09T05:42:02;85363.35;;;25.65;20.18
73974;BME280;62336;-26.094;27.994;2022-09-09T05:44:28;85364.93;;;25.42;20.23
73974;BME280;62336;-26.094;27.994;2022-09-09T05:46:53;85366.63;;;25.74;19.59
73974;BME280;62336;-26.094;27.994;2022-09-09T05:49:18;85369.84;;;25.43;19.85
73974;BME280;62336;-26.094;27.994;2022-09-09T05:51:43;85369.35;;;25.84;18.95
73974;BME280;62336;-26.094;27.994;2022-09-09T05:54:08;85370.97;;;25.88;18.48
73974;BME280;62336;-26.094;27.994;2022-09-09T05:56:34;85372.67;;;25.71;18.07
73974;BME280;62336;-26.094;27.994;2022-09-09T05:58:59;85372.15;;;26.31;17.23
73974;BME280;62336;-26.094;27.994;2022-09-09T06:01:26;85377.11;;;25.78;17.12
73974;BME280;62336;-26.094;27.994;2022-09-09T06:03:52;85377.46;;;26.19;17.31
73974;BME280;62336;-26.094;27.994;2022-09-09T06:06:18;85374.96;;;26.85;16.39
73974;BME280;62336;-26.094;27.994;2022-09-09T06:08:43;85376.16;;;27.29;15.19
73974;BME280;62336;-26.094;27.994;2022-09-09T06:11:09;85381.24;;;27.51;15.23
73974;BME280;62336;-26.094;27.994;2022-09-09T06:13:33;85381.01;;;27.91;15.07
73974;BME280;62336;-26.094;27.994;2022-09-09T06:15:58;85377.19;;;27.85;14.95
73974;BME280;62336;-26.094;27.994;2022-09-09T06:18:23;85378.01;;;28.47;14.40
73974;BME280;62336;-26.094;27.994;2022-09-09T06:20:54;85375.91;;;28.37;14.43
73974;BME280;62336;-26.094;27.994;2022-09-09T06:23:14;85377.84;;;28.46;14.09
73974;BME280;62336;-26.094;27.994;2022-09-09T06:25:39;85380.24;;;28.78;14.70
73974;BME280;62336;-26.094;27.994;2022-09-09T06:28:05;85382.48;;;28.54;14.25
73974;BME280;62336;-26.094;27.994;2022-09-09T06:30:30;85380.53;;;29.06;14.28
73974;BME280;62336;-26.094;27.994;2022-09-09T06:32:56;85382.28;;;28.89;14.37
73974;BME280;62336;-26.094;27.994;2022-09-09T06:35:20;85384.25;;;29.84;13.94
73974;BME280;62336;-26.094;27.994;2022-09-09T06:37:46;85386.80;;;29.65;14.16
73974;BME280;62336;-26.094;27.994;2022-09-09T06:40:11;85391.03;;;29.52;14.10
73974;BME280;62336;-26.094;27.994;2022-09-09T06:42:37;85390.61;;;29.92;13.74
73974;BME280;62336;-26.094;27.994;2022-09-09T06:45:01;85392.31;;;29.79;13.76
73974;BME280;62336;-26.094;27.994;2022-09-09T06:47:29;85392.60;;;29.84;13.72
73974;BME280;62336;-26.094;27.994;2022-09-09T06:49:53;85390.85;;;29.61;13.75
73974;BME280;62336;-26.094;27.994;2022-09-09T06:52:18;85395.16;;;30.62;13.66
73974;BME280;62336;-26.094;27.994;2022-09-09T06:54:44;85393.96;;;30.44;13.52
73974;BME280;62336;-26.094;27.994;2022-09-09T06:57:10;85394.49;;;31.14;12.87
73974;BME280;62336;-26.094;27.994;2022-09-09T06:59:35;85396.58;;;30.75;13.12
73974;BME280;62336;-26.094;27.994;2022-09-09T07:02:01;85395.72;;;31.29;13.20
73974;BME280;62336;-26.094;27.994;2022-09-09T07:04:27;85393.64;;;30.71;13.36
73974;BME280;62336;-26.094;27.994;2022-09-09T07:06:52;85394.59;;;30.80;13.34
73974;BME280;62336;-26.094;27.994;2022-09-09T07:09:17;85394.15;;;31.34;13.00
73974;BME280;62336;-26.094;27.994;2022-09-09T07:11:44;85395.36;;;31.28;13.05
73974;BME280;62336;-26.094;27.994;2022-09-09T07:14:09;85395.76;;;31.11;13.34
73974;BME280;62336;-26.094;27.994;2022-09-09T07:16:33;85396.38;;;31.34;13.29
73974;BME280;62336;-26.094;27.994;2022-09-09T07:18:59;85394.19;;;31.27;13.27
73974;BME280;62336;-26.094;27.994;2022-09-09T07:21:26;85395.48;;;31.68;13.14
73974;BME280;62336;-26.094;27.994;2022-09-09T07:23:50;85395.64;;;31.06;13.09
73974;BME280;62336;-26.094;27.994;2022-09-09T07:26:18;85393.37;;;31.82;13.01
73974;BME280;62336;-26.094;27.994;2022-09-09T07:28:41;85393.10;;;32.03;13.00
73974;BME280;62336;-26.094;27.994;2022-09-09T07:31:08;85393.06;;;32.25;12.81
73974;BME280;62336;-26.094;27.994;2022-09-09T07:33:33;85391.81;;;32.50;12.49
73974;BME280;62336;-26.094;27.994;2022-09-09T07:36:03;85392.48;;;32.40;12.63
73974;BME280;62336;-26.094;27.994;2022-09-09T07:38:22;85387.08;;;32.10;12.38
73974;BME280;62336;-26.094;27.994;2022-09-09T07:40:48;85386.54;;;31.96;13.01
73974;BME280;62336;-26.094;27.994;2022-09-09T07:43:13;85388.67;;;32.57;12.41
73974;BME280;62336;-26.094;27.994;2022-09-09T07:45:39;85394.21;;;32.15;12.81
73974;BME280;62336;-26.094;27.994;2022-09-09T07:48:04;85393.92;;;31.80;12.52
73974;BME280;62336;-26.094;27.994;2022-09-09T07:50:30;85389.39;;;31.96;12.70
73974;BME280;62336;-26.094;27.994;2022-09-09T07:52:55;85391.53;;;32.03;12.82
73974;BME280;62336;-26.094;27.994;2022-09-09T07:55:21;85387.55;;;32.17;12.60
73974;BME280;62336;-26.094;27.994;2022-09-09T07:57:46;85391.71;;;31.36;13.04
73974;BME280;62336;-26.094;27.994;2022-09-09T08:00:12;85393.25;;;33.03;12.24
73974;BME280;62336;-26.094;27.994;2022-09-09T08:02:36;85393.44;;;33.47;12.00
73974;BME280;62336;-26.094;27.994;2022-09-09T08:05:02;85390.85;;;33.00;11.81
73974;BME280;62336;-26.094;27.994;2022-09-09T08:07:27;85392.06;;;33.50;12.17
73974;BME280;62336;-26.094;27.994;2022-09-09T08:09:53;85393.13;;;33.24;12.10
73974;BME280;62336;-26.094;27.994;2022-09-09T08:12:18;85393.14;;;33.57;11.56
73974;BME280;62336;-26.094;27.994;2022-09-09T08:14:43;85394.26;;;34.00;11.48
73974;BME280;62336;-26.094;27.994;2022-09-09T08:17:09;85392.93;;;34.22;11.74
73974;BME280;62336;-26.094;27.994;2022-09-09T08:19:35;85392.25;;;33.87;11.62
73974;BME280;62336;-26.094;27.994;2022-09-09T08:22:00;85390.82;;;33.78;11.44
73974;BME280;62336;-26.094;27.994;2022-09-09T08:24:25;85392.63;;;33.21;11.67
73974;BME280;62336;-26.094;27.994;2022-09-09T08:26:51;85389.12;;;33.37;11.34
73974;BME280;62336;-26.094;27.994;2022-09-09T08:29:17;85387.24;;;32.93;11.56
73974;BME280;62336;-26.094;27.994;2022-09-09T08:31:43;85390.16;;;33.23;11.71
73974;BME280;62336;-26.094;27.994;2022-09-09T08:34:08;85385.22;;;33.62;11.05
73974;BME280;62336;-26.094;27.994;2022-09-09T08:36:35;85380.82;;;34.04;11.26
73974;BME280;62336;-26.094;27.994;2022-09-09T08:38:58;85381.67;;;34.24;10.78
73974;BME280;62336;-26.094;27.994;2022-09-09T08:43:51;85374.91;;;34.38;10.79
73974;BME280;62336;-26.094;27.994;2022-09-09T08:46:19;85373.73;;;34.81;10.25
73974;BME280;62336;-26.094;27.994;2022-09-09T08:48:48;85371.26;;;34.78;10.58
73974;BME280;62336;-26.094;27.994;2022-09-09T08:51:05;85370.57;;;34.81;10.74
73974;BME280;62336;-26.094;27.994;2022-09-09T08:53:37;85367.30;;;34.75;10.37
73974;BME280;62336;-26.094;27.994;2022-09-09T08:55:57;85368.43;;;35.31;10.06
73974;BME280;62336;-26.094;27.994;2022-09-09T08:58:24;85365.00;;;35.02;10.77
73974;BME280;62336;-26.094;27.994;2022-09-09T09:00:59;85363.19;;;34.91;10.30
73974;BME280;62336;-26.094;27.994;2022-09-09T09:03:18;85360.63;;;34.95;10.08
73974;BME280;62336;-26.094;27.994;2022-09-09T09:05:44;85360.10;;;35.39;9.87
73974;BME280;62336;-26.094;27.994;2022-09-09T09:08:11;85355.74;;;35.24;10.65
73974;BME280;62336;-26.094;27.994;2022-09-09T09:10:41;85353.47;;;35.54;9.87
73974;BME280;62336;-26.094;27.994;2022-09-09T09:12:55;85349.25;;;35.78;9.63
73974;BME280;62336;-26.094;27.994;2022-09-09T09:15:23;85346.96;;;36.08;9.67
73974;BME280;62336;-26.094;27.994;2022-09-09T09:17:45;85349.17;;;36.11;9.55
73974;BME280;62336;-26.094;27.994;2022-09-09T09:20:13;85344.10;;;36.38;9.34
73974;BME280;62336;-26.094;27.994;2022-09-09T09:22:45;85341.59;;;36.08;9.26
73974;BME280;62336;-26.094;27.994;2022-09-09T09:25:05;85335.54;;;35.77;9.20
73974;BME280;62336;-26.094;27.994;2022-09-09T09:27:31;85337.68;;;36.20;8.89
73974;BME280;62336;-26.094;27.994;2022-09-09T09:29:55;85328.25;;;36.37;8.62
73974;BME280;62336;-26.094;27.994;2022-09-09T09:32:19;85329.12;;;35.83;8.97
73974;BME280;62336;-26.094;27.994;2022-09-09T09:34:48;85322.30;;;35.58;9.22
73974;BME280;62336;-26.094;27.994;2022-09-09T09:37:16;85317.98;;;35.72;9.13
73974;BME280;62336;-26.094;27.994;2022-09-09T09:39:34;85315.38;;;36.15;9.29
73974;BME280;62336;-26.094;27.994;2022-09-09T09:42:08;85306.23;;;36.33;8.81
73974;BME280;62336;-26.094;27.994;2022-09-09T09:44:26;85300.80;;;36.75;8.59
73974;BME280;62336;-26.094;27.994;2022-09-09T09:46:49;85299.60;;;36.90;7.98
73974;BME280;62336;-26.094;27.994;2022-09-09T09:49:15;85292.70;;;37.47;8.03
73974;BME280;62336;-26.094;27.994;2022-09-09T09:51:40;85288.33;;;36.31;7.37
73974;BME280;62336;-26.094;27.994;2022-09-09T09:54:13;85280.68;;;36.92;7.98
73974;BME280;62336;-26.094;27.994;2022-09-09T09:56:30;85271.57;;;36.79;7.85
73974;BME280;62336;-26.094;27.994;2022-09-09T09:58:57;85263.88;;;36.90;8.08
73974;BME280;62336;-26.094;27.994;2022-09-09T10:01:23;85262.86;;;36.94;8.21
73974;BME280;62336;-26.094;27.994;2022-09-09T10:03:58;85257.12;;;37.59;7.16
73974;BME280;62336;-26.094;27.994;2022-09-09T10:06:14;85251.59;;;37.41;6.69
73974;BME280;62336;-26.094;27.994;2022-09-09T10:08:44;85246.44;;;37.57;6.37
73974;BME280;62336;-26.094;27.994;2022-09-09T10:11:18;85236.70;;;37.94;7.08
73974;BME280;62336;-26.094;27.994;2022-09-09T10:13:36;85229.37;;;37.83;6.93
73974;BME280;62336;-26.094;27.994;2022-09-09T10:16:04;85228.67;;;37.19;6.25
73974;BME280;62336;-26.094;27.994;2022-09-09T10:20:52;85224.87;;;37.29;7.04
73974;BME280;62336;-26.094;27.994;2022-09-09T10:23:21;85220.56;;;37.09;7.39
73974;BME280;62336;-26.094;27.994;2022-09-09T10:25:48;85218.45;;;37.23;6.00
73974;BME280;62336;-26.094;27.994;2022-09-09T10:28:20;85213.85;;;37.23;5.89
73974;BME280;62336;-26.094;27.994;2022-09-09T10:30:35;85209.70;;;37.43;6.35
73974;BME280;62336;-26.094;27.994;2022-09-09T10:33:00;85206.35;;;38.46;6.26
73974;BME280;62336;-26.094;27.994;2022-09-09T10:35:29;85196.55;;;38.85;6.46
73974;BME280;62336;-26.094;27.994;2022-09-09T10:37:57;85195.59;;;38.94;6.39
73974;BME280;62336;-26.094;27.994;2022-09-09T10:40:22;85194.93;;;38.41;6.31
73974;BME280;62336;-26.094;27.994;2022-09-09T10:42:35;85194.14;;;38.86;6.11
73974;BME280;62336;-26.094;27.994;2022-09-09T10:45:10;85190.52;;;37.87;6.05
73974;BME280;62336;-26.094;27.994;2022-09-09T10:50:12;85180.40;;;38.78;6.29
73974;BME280;62336;-26.094;27.994;2022-09-09T10:52:32;85179.40;;;39.07;6.07
73974;BME280;62336;-26.094;27.994;2022-09-09T10:54:58;85174.25;;;38.79;5.91
73974;BME280;62336;-26.094;27.994;2022-09-09T10:57:24;85174.04;;;39.36;5.94
73974;BME280;62336;-26.094;27.994;2022-09-09T10:59:38;85167.85;;;39.37;5.83
73974;BME280;62336;-26.094;27.994;2022-09-09T11:02:04;85160.48;;;38.67;5.47
73974;BME280;62336;-26.094;27.994;2022-09-09T11:04:30;85158.20;;;39.14;5.31
73974;BME280;62336;-26.094;27.994;2022-09-09T11:06:54;85160.63;;;38.60;5.81
73974;BME280;62336;-26.094;27.994;2022-09-09T11:09:19;85152.66;;;38.96;5.80
73974;BME280;62336;-26.094;27.994;2022-09-09T11:11:45;85150.30;;;37.75;6.10
73974;BME280;62336;-26.094;27.994;2022-09-09T11:14:13;85146.49;;;38.33;5.87
73974;BME280;62336;-26.094;27.994;2022-09-09T11:16:38;85141.97;;;37.82;5.97
73974;BME280;62336;-26.094;27.994;2022-09-09T11:19:02;85141.02;;;38.04;5.82
73974;BME280;62336;-26.094;27.994;2022-09-09T11:21:28;85143.96;;;38.85;5.68
73974;BME280;62336;-26.094;27.994;2022-09-09T11:23:52;85136.92;;;37.80;5.72
73974;BME280;62336;-26.094;27.994;2022-09-09T11:26:19;85133.33;;;38.22;5.95
73974;BME280;62336;-26.094;27.994;2022-09-09T11:28:50;85133.06;;;38.87;5.92
73974;BME280;62336;-26.094;27.994;2022-09-09T11:33:46;85123.84;;;38.67;5.76
73974;BME280;62336;-26.094;27.994;2022-09-09T11:38:26;85119.42;;;37.99;5.57
73974;BME280;62336;-26.094;27.994;2022-09-09T11:40:46;85116.11;;;38.73;6.05
73974;BME280;62336;-26.094;27.994;2022-09-09T11:43:13;85111.94;;;39.09;5.64
73974;BME280;62336;-26.094;27.994;2022-09-09T11:45:37;85106.02;;;38.39;5.71
73974;BME280;62336;-26.094;27.994;2022-09-09T11:48:03;85103.70;;;38.58;5.78
73974;BME280;62336;-26.094;27.994;2022-09-09T11:50:32;85102.13;;;39.37;5.37
73974;BME280;62336;-26.094;27.994;2022-09-09T11:53:05;85097.99;;;39.42;5.25
73974;BME280;62336;-26.094;27.994;2022-09-09T11:55:25;85094.05;;;39.81;4.92
73974;BME280;62336;-26.094;27.994;2022-09-09T11:57:43;85087.63;;;39.14;5.18
73974;BME280;62336;-26.094;27.994;2022-09-09T12:02:34;85078.80;;;39.12;5.54
73974;BME280;62336;-26.094;27.994;2022-09-09T12:05:02;85078.65;;;39.62;5.53
73974;BME280;62336;-26.094;27.994;2022-09-09T12:07:33;85078.72;;;39.57;4.82
73974;BME280;62336;-26.094;27.994;2022-09-09T12:09:52;85078.19;;;39.47;5.08
73974;BME280;62336;-26.094;27.994;2022-09-09T12:13:52;85066.43;;;36.95;6.44
73974;BME280;62336;-26.094;27.994;2022-09-09T12:18:35;85058.74;;;37.39;5.95
73974;BME280;62336;-26.094;27.994;2022-09-09T12:21:06;85055.72;;;37.76;5.72
73974;BME280;62336;-26.094;27.994;2022-09-09T12:23:34;85058.05;;;38.50;5.53
73974;BME280;62336;-26.094;27.994;2022-09-09T12:26:01;85050.07;;;38.78;5.15
73974;BME280;62336;-26.094;27.994;2022-09-09T12:28:18;85048.25;;;39.76;5.13
73974;BME280;62336;-26.094;27.994;2022-09-09T12:30:49;85046.68;;;39.95;4.34
73974;BME280;62336;-26.094;27.994;2022-09-09T12:33:12;85042.13;;;40.48;4.18
73974;BME280;62336;-26.094;27.994;2022-09-09T12:35:32;85038.09;;;40.06;4.19
73974;BME280;62336;-26.094;27.994;2022-09-09T12:38:00;85034.66;;;40.46;4.50
73974;BME280;62336;-26.094;27.994;2022-09-09T12:40:24;85030.85;;;40.26;4.69
73974;BME280;62336;-26.094;27.994;2022-09-09T12:42:48;85028.86;;;40.58;4.83
73974;BME280;62336;-26.094;27.994;2022-09-09T12:45:18;85026.47;;;40.57;4.02
73974;BME280;62336;-26.094;27.994;2022-09-09T12:47:43;85029.92;;;40.12;4.12
73974;BME280;62336;-26.094;27.994;2022-09-09T12:50:05;85022.13;;;40.16;4.13
73974;BME280;62336;-26.094;27.994;2022-09-09T12:52:34;85020.15;;;39.64;4.84
73974;BME280;62336;-26.094;27.994;2022-09-09T12:54:55;85014.79;;;39.42;4.72